Time;durP1;ratioP1;P1;durP2;ratioP2;P2;SDS_P1;SDS_P2;PMS_P1;PMS_P2;Temp;Humidity;BMP_temperature;BMP_pressure;BME280_temperature;BME280_humidity;BME280_pressure;Samples;Min_cycle;Max_cycle;Signal;HPM_P1;HPM_P2
2023/07/30 00:01:59;;;;;;;13.15;4.13;;;16.90;99.90;;;;;;5091857;28;20530;-71
2023/07/30 00:04:25;;;;;;;10.60;4.30;;;17.30;99.90;;;;;;5090524;28;20042;-70
2023/07/30 00:06:50;;;;;;;13.07;4.28;;;17.00;99.90;;;;;;5091320;28;20449;-71
2023/07/30 00:09:16;;;;;;;12.73;4.40;;;16.80;99.90;;;;;;5091702;28;20115;-71
2023/07/30 00:11:42;;;;;;;19.60;4.70;;;17.10;99.90;;;;;;5090437;28;20507;-71
2023/07/30 00:14:07;;;;;;;7.68;3.92;;;17.10;99.90;;;;;;5091742;28;20439;-71
2023/07/30 00:16:33;;;;;;;13.73;4.13;;;16.90;99.90;;;;;;5091086;28;20036;-71
2023/07/30 00:18:58;;;;;;;9.48;3.85;;;16.90;99.90;;;;;;5090307;28;20055;-71
2023/07/30 00:21:24;;;;;;;12.70;4.35;;;17.00;99.90;;;;;;5091643;28;20047;-71
2023/07/30 00:23:49;;;;;;;16.50;4.50;;;16.80;99.90;;;;;;5091514;28;20127;-71
2023/07/30 00:26:15;;;;;;;13.20;3.90;;;16.80;99.90;;;;;;5091452;28;20043;-70
2023/07/30 00:28:41;;;;;;;20.35;5.22;;;16.70;99.90;;;;;;5090061;28;20067;-71
2023/07/30 00:31:06;;;;;;;11.80;5.05;;;17.00;99.90;;;;;;5091575;28;20040;-73
2023/07/30 00:33:32;;;;;;;13.40;4.70;;;16.70;99.90;;;;;;5091606;28;20047;-72
2023/07/30 00:35:57;;;;;;;16.70;4.53;;;16.80;99.90;;;;;;5090183;28;20422;-71
2023/07/30 00:38:23;;;;;;;10.43;4.05;;;16.60;99.90;;;;;;5089810;28;20075;-71
2023/07/30 00:40:49;;;;;;;13.38;4.22;;;16.80;99.90;;;;;;5090169;28;20036;-70
2023/07/30 00:43:14;;;;;;;12.25;4.40;;;16.80;99.90;;;;;;5092522;28;20422;-70
2023/07/30 00:45:42;;;;;;;10.05;4.20;;;16.80;99.90;;;;;;5093981;28;20040;-70
2023/07/30 00:48:09;;;;;;;13.75;4.47;;;16.70;99.90;;;;;;5093723;28;20044;-70
2023/07/30 00:50:35;;;;;;;13.70;4.70;;;16.50;99.90;;;;;;5093952;28;20487;-71
2023/07/30 00:53:00;;;;;;;13.40;4.22;;;16.60;99.90;;;;;;5095140;28;20036;-71
2023/07/30 00:55:26;;;;;;;9.85;4.20;;;16.40;99.90;;;;;;5093895;28;20062;-70
2023/07/30 00:57:52;;;;;;;9.95;4.10;;;16.60;99.90;;;;;;5094768;28;20035;-71
2023/07/30 01:00:18;;;;;;;11.95;3.97;;;16.30;99.90;;;;;;5095208;28;20044;-71
2023/07/30 01:02:44;;;;;;;13.48;4.38;;;16.70;99.90;;;;;;5095131;28;20028;-70
2023/07/30 01:05:09;;;;;;;14.32;3.90;;;16.50;99.90;;;;;;5094960;28;20036;-70
2023/07/30 01:07:35;;;;;;;13.75;4.25;;;16.60;99.90;;;;;;5094396;28;20471;-71
2023/07/30 01:10:01;;;;;;;10.00;4.00;;;16.50;99.90;;;;;;5095037;28;20502;-71
2023/07/30 01:12:31;;;;;;;16.65;5.10;;;16.30;99.90;;;;;;5093561;28;20114;-71
2023/07/30 01:14:57;;;;;;;13.20;4.75;;;16.50;99.90;;;;;;5093911;28;20039;-71
2023/07/30 01:17:23;;;;;;;11.90;4.20;;;16.30;99.90;;;;;;5094556;28;20047;-71
2023/07/30 01:19:49;;;;;;;14.30;6.00;;;16.50;99.90;;;;;;5094784;28;20493;-71
2023/07/30 01:22:18;;;;;;;8.07;4.20;;;16.60;99.90;;;;;;5094635;28;20111;-71
2023/07/30 01:24:43;;;;;;;14.95;5.97;;;16.20;99.90;;;;;;5094867;28;20036;-70
2023/07/30 01:27:16;;;;;;;13.98;4.80;;;16.50;99.90;;;;;;5094010;28;20392;-71
2023/07/30 01:30:02;;;;;;;19.20;4.47;;;16.40;99.90;;;;;;5094614;28;20036;-71
2023/07/30 01:32:29;;;;;;;22.80;5.82;;;16.40;99.90;;;;;;5087130;28;20657;-71
2023/07/30 01:34:57;;;;;;;30.60;5.30;;;16.40;99.90;;;;;;5076340;28;20055;-70
2023/07/30 01:37:25;;;;;;;13.25;4.07;;;16.70;99.90;;;;;;5094299;28;20051;-70
2023/07/30 01:39:51;;;;;;;13.13;4.05;;;16.40;99.90;;;;;;5093388;28;20036;-70
2023/07/30 01:42:17;;;;;;;16.38;5.35;;;16.80;99.90;;;;;;5087459;28;20513;-70
2023/07/30 01:44:43;;;;;;;17.42;4.88;;;16.40;99.90;;;;;;5090565;28;20035;-70
2023/07/30 01:47:08;;;;;;;17.88;5.10;;;16.60;99.90;;;;;;5093816;28;20572;-71
2023/07/30 01:49:34;;;;;;;22.55;5.97;;;16.50;99.90;;;;;;5092882;28;20067;-71
2023/07/30 01:52:00;;;;;;;16.52;5.35;;;16.50;99.90;;;;;;5092819;28;20165;-70
2023/07/30 01:54:25;;;;;;;19.17;4.50;;;16.40;99.90;;;;;;5091359;28;20459;-70
2023/07/30 01:56:51;;;;;;;18.65;5.28;;;16.40;99.90;;;;;;5092659;28;20411;-71
2023/07/30 01:59:17;;;;;;;16.65;5.18;;;16.40;99.90;;;;;;5092974;28;20051;-71
2023/07/30 02:01:43;;;;;;;18.85;4.93;;;16.60;99.90;;;;;;5093957;28;20032;-70
2023/07/30 02:04:09;;;;;;;22.17;5.60;;;16.60;99.90;;;;;;5093881;28;20040;-70
2023/07/30 02:06:35;;;;;;;18.83;5.30;;;16.80;99.90;;;;;;5092201;28;20051;-70
2023/07/30 02:09:00;;;;;;;18.23;5.95;;;16.40;99.90;;;;;;5093988;28;20043;-71
2023/07/30 02:11:26;;;;;;;17.08;4.85;;;16.70;99.90;;;;;;5092364;28;20039;-70
2023/07/30 02:13:52;;;;;;;13.32;5.65;;;16.70;99.90;;;;;;5092693;28;20118;-71
2023/07/30 02:16:17;;;;;;;16.50;5.50;;;16.80;99.90;;;;;;5092133;28;20065;-71
2023/07/30 02:18:44;;;;;;;17.80;5.15;;;16.50;99.90;;;;;;5092132;28;20412;-71
2023/07/30 02:21:10;;;;;;;16.80;5.00;;;16.30;99.90;;;;;;5090128;28;20435;-71
2023/07/30 02:23:35;;;;;;;14.70;4.60;;;16.50;99.90;;;;;;5091989;28;20036;-70
2023/07/30 02:26:01;;;;;;;18.60;5.45;;;16.50;99.90;;;;;;5093110;28;20052;-71
2023/07/30 02:28:26;;;;;;;16.95;4.90;;;16.90;99.90;;;;;;5055521;22;1096202;-70
2023/07/30 02:30:52;;;;;;;14.43;4.53;;;16.50;99.90;;;;;;5073048;28;20127;-70
2023/07/30 02:33:17;;;;;;;15.32;4.47;;;16.80;99.90;;;;;;5073219;28;20087;-70
2023/07/30 02:35:43;;;;;;;14.35;4.35;;;16.50;99.90;;;;;;5071735;28;20036;-71
2023/07/30 02:38:09;;;;;;;19.60;5.10;;;16.50;99.90;;;;;;5071393;28;20135;-70
2023/07/30 02:40:35;;;;;;;14.43;4.72;;;16.60;99.90;;;;;;5073310;28;20068;-70
2023/07/30 02:43:01;;;;;;;15.15;4.55;;;16.80;99.90;;;;;;5071731;28;20037;-70
2023/07/30 02:45:26;;;;;;;16.52;4.88;;;16.50;99.90;;;;;;5072597;28;20071;-70
2023/07/30 02:47:52;;;;;;;21.40;4.55;;;16.60;99.90;;;;;;5071068;28;20437;-71
2023/07/30 02:50:17;;;;;;;14.98;4.85;;;16.40;99.90;;;;;;5071442;28;20118;-71
2023/07/30 02:52:43;;;;;;;13.63;4.53;;;16.40;99.90;;;;;;5071422;28;20059;-70
2023/07/30 02:55:09;;;;;;;18.90;4.32;;;16.50;99.90;;;;;;5071308;28;20487;-70
2023/07/30 02:57:34;;;;;;;13.73;4.88;;;16.50;99.90;;;;;;5072125;28;20032;-70
2023/07/30 03:00:00;;;;;;;16.33;4.80;;;16.40;99.90;;;;;;5071185;28;20048;-70
2023/07/30 03:02:25;;;;;;;15.82;4.45;;;16.20;99.90;;;;;;5072393;28;20048;-70
2023/07/30 03:04:51;;;;;;;16.38;5.38;;;16.40;99.90;;;;;;5072295;28;20064;-70
2023/07/30 03:07:18;;;;;;;14.73;4.40;;;16.10;99.90;;;;;;5072000;28;20045;-70
2023/07/30 03:09:43;;;;;;;15.57;4.65;;;16.20;99.90;;;;;;5071234;28;20079;-70
2023/07/30 03:12:09;;;;;;;17.67;4.78;;;16.20;99.90;;;;;;5072168;28;20060;-70
2023/07/30 03:14:35;;;;;;;13.35;5.28;;;16.30;99.90;;;;;;5072240;28;20032;-71
2023/07/30 03:17:00;;;;;;;13.32;4.72;;;16.00;99.90;;;;;;5071773;28;20132;-71
2023/07/30 03:19:26;;;;;;;16.83;4.55;;;15.90;99.90;;;;;;5072316;28;20050;-70
2023/07/30 03:21:51;;;;;;;13.60;4.93;;;16.20;99.90;;;;;;5072254;28;20453;-70
2023/07/30 03:24:17;;;;;;;12.23;4.70;;;16.10;99.90;;;;;;5072115;28;20123;-70
2023/07/30 03:26:45;;;;;;;15.75;4.10;;;15.90;99.90;;;;;;5071515;28;20076;-72
2023/07/30 03:29:11;;;;;;;15.85;4.78;;;15.90;99.90;;;;;;5072025;28;20037;-69
2023/07/30 03:31:36;;;;;;;14.82;3.92;;;15.80;99.90;;;;;;5070889;28;20596;-70
2023/07/30 03:34:02;;;;;;;17.55;5.03;;;16.10;99.90;;;;;;5072081;28;20526;-70
2023/07/30 03:36:27;;;;;;;14.27;4.95;;;15.90;99.90;;;;;;5053814;28;20474;-71
2023/07/30 03:38:53;;;;;;;16.27;4.90;;;15.90;99.90;;;;;;5071623;28;20407;-70
2023/07/30 03:41:19;;;;;;;17.35;5.07;;;16.10;99.90;;;;;;5071830;28;20041;-70
2023/07/30 03:43:44;;;;;;;19.15;4.25;;;16.20;99.90;;;;;;5071657;28;20040;-70
2023/07/30 03:46:10;;;;;;;16.50;4.70;;;15.90;99.90;;;;;;5071710;28;20036;-70
2023/07/30 03:48:35;;;;;;;14.10;4.10;;;16.10;99.90;;;;;;5071661;28;20463;-70
2023/07/30 03:51:01;;;;;;;15.13;4.30;;;16.10;99.90;;;;;;5071781;28;20579;-70
2023/07/30 03:53:26;;;;;;;14.10;4.43;;;16.10;99.90;;;;;;5071311;28;20040;-70
2023/07/30 03:55:52;;;;;;;12.20;3.90;;;15.80;99.90;;;;;;5069826;28;20411;-70
2023/07/30 03:58:17;;;;;;;20.70;4.88;;;16.10;99.90;;;;;;5069640;28;20040;-70
2023/07/30 04:00:43;;;;;;;25.08;4.85;;;15.70;99.90;;;;;;5071126;28;20078;-70
2023/07/30 04:03:08;;;;;;;16.10;4.30;;;16.10;99.90;;;;;;5069890;28;20090;-71
2023/07/30 04:05:34;;;;;;;10.00;3.88;;;15.80;99.90;;;;;;5071198;28;20043;-70
2023/07/30 04:08:00;;;;;;;11.10;3.35;;;16.10;99.90;;;;;;5070907;28;20029;-70
2023/07/30 04:10:25;;;;;;;16.33;5.47;;;15.90;99.90;;;;;;5069868;28;20029;-70
2023/07/30 04:12:51;;;;;;;15.98;4.45;;;15.70;99.90;;;;;;5071157;28;20398;-71
2023/07/30 04:15:17;;;;;;;12.75;4.28;;;15.90;99.90;;;;;;5070952;28;20093;-71
2023/07/30 04:17:42;;;;;;;12.07;4.20;;;15.90;99.90;;;;;;5072230;28;20063;-70
2023/07/30 04:20:09;;;;;;;11.82;3.90;;;16.10;99.90;;;;;;5075387;28;20067;-70
2023/07/30 04:22:35;;;;;;;15.40;4.55;;;15.90;99.90;;;;;;5075225;28;20033;-70
2023/07/30 04:25:01;;;;;;;20.95;5.10;;;15.80;99.90;;;;;;5075182;28;20036;-71
2023/07/30 04:27:27;;;;;;;15.43;4.55;;;16.20;99.90;;;;;;5074528;28;20421;-70
2023/07/30 04:29:52;;;;;;;15.05;5.07;;;15.80;99.90;;;;;;5073644;28;20046;-70
2023/07/30 04:32:18;;;;;;;11.65;3.80;;;15.80;99.90;;;;;;5075241;28;20032;-70
2023/07/30 04:34:43;;;;;;;15.55;4.18;;;16.00;99.90;;;;;;5075235;28;20645;-71
2023/07/30 04:37:09;;;;;;;17.67;4.65;;;16.10;99.90;;;;;;5074612;28;20047;-70
2023/07/30 04:39:35;;;;;;;12.07;3.47;;;15.70;99.90;;;;;;5074843;28;20036;-70
2023/07/30 04:42:01;;;;;;;13.30;4.05;;;15.80;99.90;;;;;;5074819;28;20075;-70
2023/07/30 04:44:27;;;;;;;16.58;4.85;;;15.90;99.90;;;;;;5073358;28;20138;-70
2023/07/30 04:46:52;;;;;;;21.15;4.68;;;16.30;99.90;;;;;;5074458;28;20474;-70
2023/07/30 04:49:18;;;;;;;12.20;3.63;;;15.80;99.90;;;;;;5074816;28;20043;-71
2023/07/30 04:51:43;;;;;;;16.30;3.58;;;16.20;99.90;;;;;;5074621;28;20068;-70
2023/07/30 04:54:09;;;;;;;14.82;3.40;;;16.30;99.90;;;;;;5074626;28;20040;-70
2023/07/30 04:56:34;;;;;;;10.50;4.47;;;15.90;99.90;;;;;;5074138;28;20142;-70
2023/07/30 04:59:01;;;;;;;16.80;4.80;;;16.00;99.90;;;;;;5074376;28;20090;-70
2023/07/30 05:01:27;;;;;;;11.18;3.78;;;16.20;99.90;;;;;;5074470;28;20384;-70
2023/07/30 05:03:53;;;;;;;10.30;3.53;;;16.00;99.90;;;;;;5074515;28;20047;-71
2023/07/30 05:06:18;;;;;;;11.10;3.60;;;16.00;99.90;;;;;;5074188;28;20070;-70
2023/07/30 05:08:44;;;;;;;14.10;3.92;;;16.00;99.90;;;;;;5074088;28;20479;-71
2023/07/30 05:11:10;;;;;;;17.80;4.75;;;16.10;99.90;;;;;;5074294;28;20074;-70
2023/07/30 05:13:35;;;;;;;11.07;3.75;;;16.10;99.90;;;;;;5074050;28;20346;-70
2023/07/30 05:16:01;;;;;;;15.68;4.35;;;16.30;99.90;;;;;;5074245;28;20032;-70
2023/07/30 05:18:27;;;;;;;10.57;3.42;;;16.40;99.90;;;;;;5072747;28;20083;-70
2023/07/30 05:20:53;;;;;;;11.45;3.90;;;16.50;99.90;;;;;;5074056;28;20036;-70
2023/07/30 05:23:19;;;;;;;18.85;3.50;;;16.20;99.90;;;;;;5073983;28;20166;-70
2023/07/30 05:25:45;;;;;;;15.13;5.28;;;16.20;99.90;;;;;;5073896;28;20072;-70
2023/07/30 05:28:11;;;;;;;21.23;3.80;;;16.50;99.90;;;;;;5073043;28;20142;-71
2023/07/30 05:30:36;;;;;;;13.18;3.88;;;16.40;99.90;;;;;;5072509;28;20040;-71
2023/07/30 05:33:02;;;;;;;21.40;4.47;;;16.40;99.90;;;;;;5072523;28;20032;-73
2023/07/30 05:35:28;;;;;;;14.40;3.65;;;16.60;99.90;;;;;;5073860;28;20094;-70
2023/07/30 05:37:53;;;;;;;16.45;3.05;;;16.40;99.90;;;;;;5069636;28;20033;-70
2023/07/30 05:40:19;;;;;;;14.23;3.85;;;16.20;99.90;;;;;;5073591;28;20040;-71
2023/07/30 05:42:44;;;;;;;15.75;3.55;;;16.30;99.90;;;;;;5064761;28;20039;-70
2023/07/30 05:45:10;;;;;;;13.43;3.28;;;16.80;99.90;;;;;;5067806;28;20400;-70
2023/07/30 05:47:36;;;;;;;14.18;3.78;;;16.70;99.90;;;;;;5071789;28;20052;-71
2023/07/30 05:50:02;;;;;;;12.73;3.58;;;16.50;99.90;;;;;;5072159;28;20037;-71
2023/07/30 05:52:28;;;;;;;13.73;3.95;;;16.70;99.90;;;;;;5073607;28;20040;-70
2023/07/30 05:54:53;;;;;;;10.25;3.70;;;16.90;99.90;;;;;;5073199;28;20028;-70
2023/07/30 05:57:19;;;;;;;15.40;3.85;;;16.80;99.90;;;;;;5072821;28;20033;-71
2023/07/30 05:59:44;;;;;;;16.23;3.45;;;17.00;99.90;;;;;;5073543;28;20033;-70
2023/07/30 06:02:10;;;;;;;14.18;3.92;;;16.80;99.90;;;;;;5073441;28;20043;-70
2023/07/30 06:04:36;;;;;;;22.65;4.88;;;16.90;99.90;;;;;;5073293;28;20048;-70
2023/07/30 06:07:03;;;;;;;9.30;3.30;;;17.00;99.90;;;;;;5072851;28;20408;-71
2023/07/30 06:09:28;;;;;;;14.50;3.38;;;17.00;99.90;;;;;;5073271;28;20033;-70
2023/07/30 06:11:58;;;;;;;11.45;4.10;;;17.00;99.90;;;;;;5073062;28;20036;-70
2023/07/30 06:14:24;;;;;;;8.77;3.15;;;16.80;99.90;;;;;;5072057;28;20052;-70
2023/07/30 06:16:50;;;;;;;11.70;3.05;;;16.70;99.90;;;;;;5072789;28;20044;-70
2023/07/30 06:19:16;;;;;;;10.65;3.38;;;17.20;99.90;;;;;;5071680;28;20082;-69
2023/07/30 06:21:42;;;;;;;14.32;3.80;;;17.20;99.90;;;;;;5071635;28;20047;-70
2023/07/30 06:24:07;;;;;;;12.40;3.28;;;17.10;99.90;;;;;;5071838;28;20045;-70
2023/07/30 06:26:33;;;;;;;13.23;3.67;;;16.90;99.90;;;;;;5054504;28;20040;-70
2023/07/30 06:28:58;;;;;;;11.98;3.58;;;17.00;99.90;;;;;;5072594;28;20032;-71
2023/07/30 06:31:24;;;;;;;20.70;3.92;;;17.00;99.90;;;;;;5072865;28;20545;-70
2023/07/30 06:33:50;;;;;;;13.73;4.05;;;17.00;99.90;;;;;;5072757;28;20040;-71
2023/07/30 06:36:15;;;;;;;11.45;2.85;;;17.00;99.90;;;;;;5071211;28;20089;-70
2023/07/30 06:38:41;;;;;;;18.20;3.25;;;16.90;99.90;;;;;;5072365;28;20036;-70
2023/07/30 06:41:06;;;;;;;12.93;3.47;;;17.20;99.90;;;;;;5070810;28;20052;-71
2023/07/30 06:43:32;;;;;;;15.45;3.08;;;16.90;99.90;;;;;;5068523;28;20044;-71
2023/07/30 06:45:58;;;;;;;9.52;3.22;;;17.00;99.90;;;;;;5072338;28;20114;-71
2023/07/30 06:48:23;;;;;;;10.45;3.65;;;16.90;99.90;;;;;;5070918;28;20032;-70
2023/07/30 06:50:49;;;;;;;14.80;3.33;;;17.10;99.90;;;;;;5072425;28;20029;-70
2023/07/30 06:53:14;;;;;;;11.95;3.30;;;17.20;99.90;;;;;;5072387;28;20029;-70
2023/07/30 06:55:40;;;;;;;9.93;3.42;;;17.10;99.90;;;;;;5072203;28;20606;-70
2023/07/30 06:58:06;;;;;;;13.55;3.78;;;17.30;99.90;;;;;;5072125;28;20051;-70
2023/07/30 07:00:31;;;;;;;9.23;3.60;;;17.20;99.90;;;;;;5070831;28;20036;-70
2023/07/30 07:02:57;;;;;;;11.77;4.28;;;17.30;99.90;;;;;;5072114;28;20042;-70
2023/07/30 07:05:23;;;;;;;13.13;3.80;;;17.10;99.90;;;;;;5072024;28;20036;-70
2023/07/30 07:07:48;;;;;;;10.23;3.38;;;17.50;99.90;;;;;;5070671;28;20067;-71
2023/07/30 07:10:14;;;;;;;11.43;3.63;;;17.50;99.90;;;;;;5071957;28;20040;-70
2023/07/30 07:12:40;;;;;;;11.80;3.65;;;17.50;99.90;;;;;;5070867;28;20443;-70
2023/07/30 07:15:06;;;;;;;12.90;3.78;;;17.90;99.90;;;;;;5071954;28;20040;-71
2023/07/30 07:17:32;;;;;;;14.48;3.42;;;17.90;99.90;;;;;;5071982;28;20044;-70
2023/07/30 07:19:58;;;;;;;14.50;3.78;;;17.80;99.90;;;;;;5071929;28;20040;-70
2023/07/30 07:22:24;;;;;;;11.88;3.65;;;18.30;99.90;;;;;;5071850;28;20087;-71
2023/07/30 07:24:52;;;;;;;11.45;3.00;;;18.50;99.90;;;;;;5071581;28;20048;-70
2023/07/30 07:27:18;;;;;;;15.38;3.78;;;18.70;99.90;;;;;;5071262;28;20052;-70
2023/07/30 07:29:44;;;;;;;13.73;3.72;;;18.50;99.90;;;;;;5071924;28;20412;-69
2023/07/30 07:32:09;;;;;;;14.05;3.55;;;18.70;99.90;;;;;;5071845;28;20028;-70
2023/07/30 07:34:35;;;;;;;11.98;4.50;;;18.30;99.90;;;;;;5071676;28;20036;-70
2023/07/30 07:37:01;;;;;;;10.90;2.60;;;18.20;99.90;;;;;;5071199;28;20454;-71
2023/07/30 07:39:27;;;;;;;13.77;3.67;;;18.60;99.90;;;;;;5071536;28;20049;-70
2023/07/30 07:41:53;;;;;;;12.82;3.40;;;18.60;99.90;;;;;;5071780;28;20043;-70
2023/07/30 07:44:18;;;;;;;17.70;3.67;;;18.70;99.90;;;;;;5071626;28;20514;-70
2023/07/30 07:46:44;;;;;;;7.20;2.65;;;19.10;99.90;;;;;;5069731;28;20097;-70
2023/07/30 07:49:09;;;;;;;11.80;3.45;;;19.00;99.90;;;;;;5071383;28;20119;-70
2023/07/30 07:51:35;;;;;;;12.75;3.13;;;19.70;99.90;;;;;;5071411;28;20040;-70
2023/07/30 07:54:00;;;;;;;10.65;2.95;;;19.70;99.90;;;;;;5071270;28;20040;-70
2023/07/30 07:56:26;;;;;;;10.35;3.35;;;19.90;99.90;;;;;;5070251;28;20044;-70
2023/07/30 07:58:51;;;;;;;12.57;2.90;;;20.40;99.90;;;;;;5065679;28;20055;-70
2023/07/30 08:01:17;;;;;;;10.20;3.70;;;20.60;99.90;;;;;;5044640;28;20041;-70
2023/07/30 08:03:43;;;;;;;7.38;2.92;;;20.70;99.90;;;;;;5039204;28;20507;-70
2023/07/30 08:06:09;;;;;;;10.35;2.78;;;20.80;99.90;;;;;;5067709;28;20037;-70
2023/07/30 08:08:34;;;;;;;10.65;3.20;;;20.90;99.90;;;;;;5055925;28;20047;-71
2023/07/30 08:11:05;;;;;;;11.95;2.70;;;21.20;99.90;;;;;;5063651;28;20025;-71
2023/07/30 08:13:31;;;;;;;9.68;2.70;;;21.60;99.90;;;;;;5068905;28;20037;-70
2023/07/30 08:15:56;;;;;;;11.90;3.28;;;21.40;99.90;;;;;;5061426;28;20536;-71
2023/07/30 08:18:22;;;;;;;11.48;2.67;;;21.00;99.90;;;;;;5053764;28;20587;-70
2023/07/30 08:20:49;;;;;;;9.80;2.85;;;20.90;99.90;;;;;;5067821;28;20515;-70
2023/07/30 08:23:15;;;;;;;9.45;2.65;;;20.50;99.90;;;;;;5069778;28;20048;-71
2023/07/30 08:25:41;;;;;;;10.05;2.20;;;20.20;99.90;;;;;;5061544;28;20074;-71
2023/07/30 08:28:06;;;;;;;9.07;1.73;;;19.70;99.90;;;;;;5092065;22;20052;-72
2023/07/30 08:30:32;;;;;;;7.20;1.73;;;19.50;99.90;;;;;;5039026;28;20127;-71
2023/07/30 08:33:00;;;;;;;9.07;1.83;;;19.30;99.90;;;;;;5062081;28;20043;-72
2023/07/30 08:35:28;;;;;;;6.82;2.28;;;19.00;99.90;;;;;;5068593;28;20094;-71
2023/07/30 08:37:54;;;;;;;7.00;1.55;;;18.70;99.90;;;;;;5070476;28;20036;-71
2023/07/30 08:40:23;;;;;;;8.77;1.55;;;18.60;99.90;;;;;;5070726;28;20041;-72
2023/07/30 08:42:51;;;;;;;7.20;1.60;;;18.30;99.90;;;;;;5047348;28;20082;-72
2023/07/30 08:45:17;;;;;;;7.57;1.48;;;18.30;99.90;;;;;;5062019;28;20123;-73
2023/07/30 08:47:42;;;;;;;5.18;1.58;;;18.20;99.90;;;;;;5067915;28;20455;-72
2023/07/30 08:50:08;;;;;;;6.78;1.92;;;18.10;99.90;;;;;;5055163;28;20047;-72
2023/07/30 08:52:35;;;;;;;4.50;1.55;;;18.00;99.90;;;;;;5064661;28;20036;-72
2023/07/30 08:55:03;;;;;;;10.50;1.50;;;17.90;99.90;;;;;;5051566;28;20544;-71
2023/07/30 08:57:32;;;;;;;5.97;1.80;;;18.10;99.90;;;;;;5049506;28;20037;-71
2023/07/30 09:00:10;;;;;;;7.90;1.27;;;17.80;99.90;;;;;;5070594;28;20055;-71
2023/07/30 09:02:44;;;;;;;6.80;1.85;;;17.80;99.90;;;;;;5052952;28;20079;-73
2023/07/30 09:05:10;;;;;;;5.82;1.50;;;17.80;99.90;;;;;;5073690;28;20174;-71
2023/07/30 09:07:35;;;;;;;9.23;1.63;;;17.80;99.90;;;;;;5073741;28;20059;-70
2023/07/30 09:10:01;;;;;;;6.47;1.75;;;17.90;99.90;;;;;;5068093;28;20391;-72
2023/07/30 09:12:34;;;;;;;7.32;1.63;;;17.90;99.90;;;;;;5062215;28;20411;-71
2023/07/30 09:15:01;;;;;;;3.50;1.55;;;18.10;99.90;;;;;;5058663;28;20467;-74
2023/07/30 09:17:27;;;;;;;6.88;1.45;;;18.20;99.90;;;;;;5064402;28;20423;-72
2023/07/30 09:19:53;;;;;;;10.45;2.13;;;18.30;99.90;;;;;;5074230;28;20032;-71
2023/07/30 09:22:26;;;;;;;7.25;1.80;;;18.60;99.90;;;;;;5074308;28;20667;-71
2023/07/30 09:24:53;;;;;;;6.20;1.52;;;19.00;99.90;;;;;;5056236;28;20037;-71
2023/07/30 09:27:25;;;;;;;5.43;1.92;;;19.00;99.90;;;;;;5055861;28;20045;-72
2023/07/30 09:29:58;;;;;;;8.88;2.10;;;19.00;99.90;;;;;;5073893;28;20028;-71
2023/07/30 09:32:28;;;;;;;6.15;1.77;;;19.00;99.90;;;;;;5056378;28;20044;-70
2023/07/30 09:34:54;;;;;;;6.03;1.98;;;19.40;99.90;;;;;;5063599;28;20043;-70
2023/07/30 09:37:19;;;;;;;5.38;1.45;;;19.30;99.90;;;;;;5055875;28;20033;-71
2023/07/30 09:39:48;;;;;;;5.88;2.28;;;19.20;99.90;;;;;;5039198;28;20044;-69
2023/07/30 09:42:14;;;;;;;8.82;2.33;;;19.00;99.90;;;;;;5052276;28;20044;-70
2023/07/30 09:44:39;;;;;;;6.35;2.10;;;18.60;99.90;;;;;;5060489;28;20100;-70
2023/07/30 09:47:09;;;;;;;11.25;2.83;;;18.50;99.90;;;;;;5059211;28;20479;-71
2023/07/30 09:49:36;;;;;;;6.38;2.00;;;18.30;99.90;;;;;;5051065;28;20086;-71
2023/07/30 09:52:04;;;;;;;6.80;2.30;;;17.70;99.90;;;;;;5053963;28;20480;-70
2023/07/30 09:54:31;;;;;;;5.13;1.60;;;17.70;99.90;;;;;;5073013;28;20047;-71
2023/07/30 09:56:56;;;;;;;6.20;1.90;;;17.80;99.90;;;;;;5050765;28;20037;-72
2023/07/30 09:59:23;;;;;;;6.43;1.67;;;17.60;99.90;;;;;;5063642;28;20090;-70
2023/07/30 10:01:50;;;;;;;8.75;1.90;;;17.70;99.90;;;;;;5074930;28;20048;-71
2023/07/30 10:04:19;;;;;;;6.25;2.65;;;17.60;99.90;;;;;;5065000;28;20047;-71
2023/07/30 10:07:00;;;;;;;5.90;1.40;;;17.30;99.90;;;;;;5074549;28;20040;-70
2023/07/30 10:09:32;;;;;;;3.80;1.20;;;17.20;99.90;;;;;;5069295;28;20098;-69
2023/07/30 10:11:59;;;;;;;5.75;1.25;;;17.40;99.90;;;;;;5074306;28;20036;-70
2023/07/30 10:14:26;;;;;;;4.03;1.20;;;17.20;99.90;;;;;;5067838;28;20040;-71
2023/07/30 10:16:58;;;;;;;3.42;1.13;;;17.40;99.90;;;;;;5065600;28;20086;-70
2023/07/30 10:19:27;;;;;;;7.05;2.00;;;17.10;99.90;;;;;;5057123;28;20048;-72
2023/07/30 10:22:14;;;;;;;8.65;1.75;;;17.20;99.90;;;;;;5067708;28;20445;-71
2023/07/30 10:24:55;;;;;;;5.30;1.67;;;17.20;99.90;;;;;;5050768;28;20048;-71
2023/07/30 10:27:24;;;;;;;5.85;1.80;;;17.10;99.90;;;;;;5071458;28;20056;-71
2023/07/30 10:30:09;;;;;;;4.85;1.10;;;17.00;99.90;;;;;;5067617;28;20040;-70
2023/07/30 10:32:59;;;;;;;6.55;1.35;;;17.20;99.90;;;;;;5059335;28;20063;-70
2023/07/30 10:35:44;;;;;;;4.15;1.30;;;17.20;99.90;;;;;;5066818;28;20043;-70
2023/07/30 10:38:27;;;;;;;6.00;1.17;;;17.40;99.90;;;;;;5063112;28;20032;-71
2023/07/30 10:41:01;;;;;;;6.55;1.60;;;18.10;99.90;;;;;;5054006;28;20033;-71
2023/07/30 10:43:30;;;;;;;;;;;17.80;99.90;;;;;;5071605;28;20043;-71
2023/07/30 10:45:55;;;;;;;7.45;1.38;;;17.70;99.90;;;;;;5072539;28;19924;-70
2023/07/30 10:48:39;;;;;;;2.47;1.13;;;17.60;99.90;;;;;;5071519;28;20404;-71
2023/07/30 10:51:05;;;;;;;;;;;17.60;99.90;;;;;;5071880;28;20089;-71
2023/07/30 10:53:31;;;;;;;3.90;1.20;;;17.60;99.90;;;;;;5072223;28;19917;-71
2023/07/30 10:56:01;;;;;;;4.60;1.38;;;17.40;99.90;;;;;;5072043;28;20082;-70
2023/07/30 10:58:31;;;;;;;2.75;1.48;;;17.30;99.90;;;;;;5072045;28;20123;-70
2023/07/30 11:00:57;;;;;;;5.88;1.52;;;17.50;99.90;;;;;;5054217;28;20123;-70
2023/07/30 11:03:26;;;;;;;4.32;1.15;;;17.80;99.90;;;;;;5072167;28;20040;-70
2023/07/30 11:05:52;;;;;;;3.17;1.60;;;17.90;99.90;;;;;;5072468;28;20178;-70
2023/07/30 11:08:17;;;;;;;6.65;1.83;;;18.00;99.90;;;;;;5072114;28;20535;-71
2023/07/30 11:10:46;;;;;;;7.97;1.88;;;18.30;99.90;;;;;;5054255;28;20040;-71
2023/07/30 11:13:13;;;;;;;8.65;2.13;;;18.50;99.90;;;;;;5072398;28;20448;-70
2023/07/30 11:15:45;;;;;;;5.90;1.80;;;18.60;99.90;;;;;;5054343;28;20044;-70
2023/07/30 11:18:12;;;;;;;6.40;1.90;;;18.80;99.90;;;;;;5071878;28;20044;-70
2023/07/30 11:20:38;;;;;;;6.32;1.73;;;19.00;99.90;;;;;;5071906;28;20522;-71
2023/07/30 11:23:18;;;;;;;2.83;1.45;;;19.00;99.90;;;;;;5053930;28;20036;-71
2023/07/30 11:25:47;;;;;;;5.95;1.77;;;19.20;99.90;;;;;;5053715;28;20124;-71
2023/07/30 11:28:12;;;;;;;7.32;1.50;;;19.40;99.90;;;;;;5051144;28;20033;-71
2023/07/30 11:30:38;;;;;;;9.75;1.90;;;19.50;99.90;;;;;;5053320;28;20633;-72
2023/07/30 11:33:04;;;;;;;10.10;3.13;;;19.30;99.90;;;;;;5053682;28;20097;-72
2023/07/30 11:35:30;;;;;;;10.38;2.85;;;19.20;99.90;;;;;;5071824;28;20032;-71
2023/07/30 11:37:57;;;;;;;8.88;2.08;;;19.20;99.90;;;;;;5071465;28;20064;-71
2023/07/30 11:40:23;;;;;;;7.85;2.00;;;19.00;99.90;;;;;;5053954;28;20036;-71
2023/07/30 11:42:49;;;;;;;8.07;2.47;;;19.10;99.90;;;;;;5054000;28;20082;-72
2023/07/30 11:45:22;;;;;;;10.25;2.30;;;19.00;99.90;;;;;;5053483;28;20040;-71
2023/07/30 11:47:48;;;;;;;6.22;2.28;;;19.10;99.90;;;;;;5053267;28;20102;-72
2023/07/30 11:50:15;;;;;;;7.07;1.75;;;19.10;99.90;;;;;;5071717;28;20040;-71
2023/07/30 11:52:54;;;;;;;8.27;2.15;;;19.20;99.90;;;;;;5071665;28;20505;-72
2023/07/30 11:55:20;;;;;;;4.00;1.75;;;19.70;99.90;;;;;;5053626;28;20056;-71
2023/07/30 11:57:46;;;;;;;5.45;1.42;;;19.70;99.90;;;;;;5053266;28;20044;-71
2023/07/30 12:00:12;;;;;;;9.65;2.40;;;19.60;99.90;;;;;;5036535;28;20043;-72
2023/07/30 12:02:39;;;;;;;7.65;2.38;;;19.40;99.90;;;;;;5071240;28;20041;-71
2023/07/30 12:05:05;;;;;;;5.10;2.92;;;19.40;99.90;;;;;;5071540;28;20048;-72
2023/07/30 12:07:32;;;;;;;8.80;1.95;;;19.50;99.90;;;;;;5053072;28;20408;-72
2023/07/30 12:10:11;;;;;;;5.15;1.67;;;19.70;99.90;;;;;;5053482;28;20404;-71
2023/07/30 12:12:44;;;;;;;11.63;1.92;;;19.90;99.90;;;;;;5071046;28;20079;-71
2023/07/30 12:15:11;;;;;;;7.50;1.50;;;20.00;99.90;;;;;;5071131;28;20079;-72
2023/07/30 12:17:37;;;;;;;7.05;1.55;;;19.90;99.90;;;;;;5070743;28;20052;-71
2023/07/30 12:20:06;;;;;;;7.05;1.80;;;19.90;99.90;;;;;;5053145;28;20040;-71
2023/07/30 12:22:34;;;;;;;8.05;2.15;;;19.90;99.90;;;;;;5070922;28;20040;-71
2023/07/30 12:25:00;;;;;;;9.20;2.58;;;20.10;99.90;;;;;;5070798;28;20111;-72
2023/07/30 12:27:25;;;;;;;6.55;1.77;;;19.80;99.90;;;;;;5052575;28;20045;-71
2023/07/30 12:29:51;;;;;;;5.90;1.77;;;19.70;99.90;;;;;;5053458;28;20036;-72
2023/07/30 12:32:16;;;;;;;6.47;1.60;;;19.40;99.90;;;;;;5071258;28;20526;-71
2023/07/30 12:34:42;;;;;;;8.32;1.30;;;19.10;99.90;;;;;;5047157;28;20491;-73
2023/07/30 12:37:09;;;;;;;5.03;1.17;;;18.90;99.90;;;;;;5045532;28;20407;-73
2023/07/30 12:39:34;;;;;;;3.17;1.40;;;18.20;99.90;;;;;;5064152;28;20037;-72